sensor_id;sensor_type;location;lat;lon;timestamp;temperature;humidity
23289;DHT22;11813;50.834;4.280;2023-02-01T00:01:54;7.90;99.90
23289;DHT22;11813;50.834;4.280;2023-02-01T00:04:19;7.80;99.90
23289;DHT22;11813;50.834;4.280;2023-02-01T00:06:45;7.80;99.90
23289;DHT22;11813;50.834;4.280;2023-02-01T00:09:11;7.80;99.90
23289;DHT22;11813;50.834;4.280;2023-02-01T00:11:36;7.90;99.90
23289;DHT22;11813;50.834;4.280;2023-02-01T00:14:02;7.90;99.90
23289;DHT22;11813;50.834;4.280;2023-02-01T00:16:29;7.90;99.90
23289;DHT22;11813;50.834;4.280;2023-02-01T00:19:33;7.90;99.90
23289;DHT22;11813;50.834;4.280;2023-02-01T00:21:51;7.90;99.90
23289;DHT22;11813;50.834;4.280;2023-02-01T00:24:17;7.90;99.90
23289;DHT22;11813;50.834;4.280;2023-02-01T00:26:44;7.90;99.90
23289;DHT22;11813;50.834;4.280;2023-02-01T00:29:15;7.80;99.90
23289;DHT22;11813;50.834;4.280;2023-02-01T00:31:41;7.70;99.90
23289;DHT22;11813;50.834;4.280;2023-02-01T00:34:12;7.70;99.90
23289;DHT22;11813;50.834;4.280;2023-02-01T00:36:38;7.70;99.90
23289;DHT22;11813;50.834;4.280;2023-02-01T00:39:04;7.80;99.90
23289;DHT22;11813;50.834;4.280;2023-02-01T00:41:29;7.70;99.90
23289;DHT22;11813;50.834;4.280;2023-02-01T00:43:55;7.70;99.90
23289;DHT22;11813;50.834;4.280;2023-02-01T00:46:20;7.80;99.90
23289;DHT22;11813;50.834;4.280;2023-02-01T00:48:47;7.80;99.90
23289;DHT22;11813;50.834;4.280;2023-02-01T00:51:14;7.80;99.90
23289;DHT22;11813;50.834;4.280;2023-02-01T00:53:40;7.80;99.90
23289;DHT22;11813;50.834;4.280;2023-02-01T00:56:06;7.80;99.90
23289;DHT22;11813;50.834;4.280;2023-02-01T00:58:32;7.80;99.90
23289;DHT22;11813;50.834;4.280;2023-02-01T01:01:09;7.90;99.90
23289;DHT22;11813;50.834;4.280;2023-02-01T01:03:41;7.80;99.90
23289;DHT22;11813;50.834;4.280;2023-02-01T01:06:13;7.70;99.90
23289;DHT22;11813;50.834;4.280;2023-02-01T01:08:39;7.70;99.90
23289;DHT22;11813;50.834;4.280;2023-02-01T01:11:11;7.70;99.90
23289;DHT22;11813;50.834;4.280;2023-02-01T01:13:37;7.70;99.90
23289;DHT22;11813;50.834;4.280;2023-02-01T01:16:04;7.60;99.90
23289;DHT22;11813;50.834;4.280;2023-02-01T01:18:31;7.50;99.90
23289;DHT22;11813;50.834;4.280;2023-02-01T01:20:57;7.50;99.90
23289;DHT22;11813;50.834;4.280;2023-02-01T01:23:23;7.50;99.90
23289;DHT22;11813;50.834;4.280;2023-02-01T01:25:48;7.40;99.90
23289;DHT22;11813;50.834;4.280;2023-02-01T01:28:14;7.30;99.90
23289;DHT22;11813;50.834;4.280;2023-02-01T01:30:40;7.40;99.90
23289;DHT22;11813;50.834;4.280;2023-02-01T01:33:06;7.30;99.90
23289;DHT22;11813;50.834;4.280;2023-02-01T01:35:32;7.30;99.90
23289;DHT22;11813;50.834;4.280;2023-02-01T01:37:59;7.30;99.90
23289;DHT22;11813;50.834;4.280;2023-02-01T01:40:25;7.30;99.90
23289;DHT22;11813;50.834;4.280;2023-02-01T01:42:51;7.30;99.90
23289;DHT22;11813;50.834;4.280;2023-02-01T01:45:30;7.30;99.90
23289;DHT22;11813;50.834;4.280;2023-02-01T01:48:07;7.40;99.90
23289;DHT22;11813;50.834;4.280;2023-02-01T01:50:38;7.30;99.90
23289;DHT22;11813;50.834;4.280;2023-02-01T01:53:06;7.30;99.90
23289;DHT22;11813;50.834;4.280;2023-02-01T01:55:35;7.30;99.90
23289;DHT22;11813;50.834;4.280;2023-02-01T01:58:12;7.40;99.90
23289;DHT22;11813;50.834;4.280;2023-02-01T02:00:40;7.30;99.90
23289;DHT22;11813;50.834;4.280;2023-02-01T02:03:23;7.40;99.90
23289;DHT22;11813;50.834;4.280;2023-02-01T02:05:50;7.30;99.90
23289;DHT22;11813;50.834;4.280;2023-02-01T02:08:18;7.30;99.90
23289;DHT22;11813;50.834;4.280;2023-02-01T02:10:47;7.30;99.90
23289;DHT22;11813;50.834;4.280;2023-02-01T02:13:35;7.30;99.90
23289;DHT22;11813;50.834;4.280;2023-02-01T02:16:20;7.30;99.90
23289;DHT22;11813;50.834;4.280;2023-02-01T02:27:46;7.20;99.90
23289;DHT22;11813;50.834;4.280;2023-02-01T02:33:42;7.40;99.90
23289;DHT22;11813;50.834;4.280;2023-02-01T02:39:35;7.30;99.90
23289;DHT22;11813;50.834;4.280;2023-02-01T02:45:00;7.30;99.90
23289;DHT22;11813;50.834;4.280;2023-02-01T02:50:33;7.20;99.90
23289;DHT22;11813;50.834;4.280;2023-02-01T02:53:27;7.30;99.90
23289;DHT22;11813;50.834;4.280;2023-02-01T02:56:15;7.20;99.90
23289;DHT22;11813;50.834;4.280;2023-02-01T02:59:01;7.20;99.90
23289;DHT22;11813;50.834;4.280;2023-02-01T03:01:46;7.30;99.90
23289;DHT22;11813;50.834;4.280;2023-02-01T03:04:31;7.30;99.90
23289;DHT22;11813;50.834;4.280;2023-02-01T03:06:57;7.20;99.90
23289;DHT22;11813;50.834;4.280;2023-02-01T03:09:34;7.20;99.90
23289;DHT22;11813;50.834;4.280;2023-02-01T03:12:04;7.10;99.90
23289;DHT22;11813;50.834;4.280;2023-02-01T03:14:55;7.10;99.90
23289;DHT22;11813;50.834;4.280;2023-02-01T03:17:30;7.10;99.90
23289;DHT22;11813;50.834;4.280;2023-02-01T03:19:59;7.10;99.90
23289;DHT22;11813;50.834;4.280;2023-02-01T03:22:28;7.10;99.90
23289;DHT22;11813;50.834;4.280;2023-02-01T03:25:23;7.00;99.90
23289;DHT22;11813;50.834;4.280;2023-02-01T03:28:07;7.00;99.90
23289;DHT22;11813;50.834;4.280;2023-02-01T03:30:38;7.00;99.90
23289;DHT22;11813;50.834;4.280;2023-02-01T03:33:09;7.00;99.90
23289;DHT22;11813;50.834;4.280;2023-02-01T03:46:57;6.90;99.90
23289;DHT22;11813;50.834;4.280;2023-02-01T03:49:35;6.90;99.90
23289;DHT22;11813;50.834;4.280;2023-02-01T03:52:02;6.80;99.90
23289;DHT22;11813;50.834;4.280;2023-02-01T03:54:29;6.80;99.90
23289;DHT22;11813;50.834;4.280;2023-02-01T03:56:59;6.80;99.90
23289;DHT22;11813;50.834;4.280;2023-02-01T03:59:25;6.70;99.90
23289;DHT22;11813;50.834;4.280;2023-02-01T04:01:51;6.70;99.90
23289;DHT22;11813;50.834;4.280;2023-02-01T04:04:18;6.70;99.90
23289;DHT22;11813;50.834;4.280;2023-02-01T04:06:47;6.70;99.90
23289;DHT22;11813;50.834;4.280;2023-02-01T04:09:13;6.70;99.90
23289;DHT22;11813;50.834;4.280;2023-02-01T04:11:39;6.70;99.90
23289;DHT22;11813;50.834;4.280;2023-02-01T04:14:04;6.60;99.90
23289;DHT22;11813;50.834;4.280;2023-02-01T04:16:31;6.70;99.90
23289;DHT22;11813;50.834;4.280;2023-02-01T04:18:57;6.60;99.90
23289;DHT22;11813;50.834;4.280;2023-02-01T04:21:24;6.60;99.90
23289;DHT22;11813;50.834;4.280;2023-02-01T04:23:50;6.50;99.90
23289;DHT22;11813;50.834;4.280;2023-02-01T04:26:16;6.40;99.90
23289;DHT22;11813;50.834;4.280;2023-02-01T04:28:42;6.40;99.90
23289;DHT22;11813;50.834;4.280;2023-02-01T04:31:07;6.50;99.90
23289;DHT22;11813;50.834;4.280;2023-02-01T04:33:33;6.40;99.90
23289;DHT22;11813;50.834;4.280;2023-02-01T04:35:59;6.20;99.90
23289;DHT22;11813;50.834;4.280;2023-02-01T04:38:25;6.20;99.90
23289;DHT22;11813;50.834;4.280;2023-02-01T04:40:50;6.20;99.90
23289;DHT22;11813;50.834;4.280;2023-02-01T04:43:17;6.10;99.90
23289;DHT22;11813;50.834;4.280;2023-02-01T04:45:47;6.20;99.90
23289;DHT22;11813;50.834;4.280;2023-02-01T04:48:13;6.20;99.90
23289;DHT22;11813;50.834;4.280;2023-02-01T04:50:38;6.30;99.90
23289;DHT22;11813;50.834;4.280;2023-02-01T04:53:04;6.20;99.90
23289;DHT22;11813;50.834;4.280;2023-02-01T04:55:29;6.20;99.90
23289;DHT22;11813;50.834;4.280;2023-02-01T04:57:56;6.10;99.90
23289;DHT22;11813;50.834;4.280;2023-02-01T05:00:22;6.10;99.90
23289;DHT22;11813;50.834;4.280;2023-02-01T05:02:47;6.20;99.90
23289;DHT22;11813;50.834;4.280;2023-02-01T05:05:13;6.20;99.90
23289;DHT22;11813;50.834;4.280;2023-02-01T05:07:38;6.10;99.90
23289;DHT22;11813;50.834;4.280;2023-02-01T05:10:04;6.00;99.90
23289;DHT22;11813;50.834;4.280;2023-02-01T05:12:30;6.00;99.90
23289;DHT22;11813;50.834;4.280;2023-02-01T05:15:14;6.10;99.90
23289;DHT22;11813;50.834;4.280;2023-02-01T05:17:40;6.10;99.90
23289;DHT22;11813;50.834;4.280;2023-02-01T05:20:06;6.10;99.90
23289;DHT22;11813;50.834;4.280;2023-02-01T05:22:32;6.10;99.90
23289;DHT22;11813;50.834;4.280;2023-02-01T05:24:58;6.00;99.90
23289;DHT22;11813;50.834;4.280;2023-02-01T05:27:23;6.10;99.90
23289;DHT22;11813;50.834;4.280;2023-02-01T05:29:49;6.10;99.90
23289;DHT22;11813;50.834;4.280;2023-02-01T05:32:14;5.90;99.90
23289;DHT22;11813;50.834;4.280;2023-02-01T05:34:40;5.90;99.90
23289;DHT22;11813;50.834;4.280;2023-02-01T05:37:05;5.90;99.90
23289;DHT22;11813;50.834;4.280;2023-02-01T05:39:31;5.90;99.90
23289;DHT22;11813;50.834;4.280;2023-02-01T05:41:57;5.90;99.90
23289;DHT22;11813;50.834;4.280;2023-02-01T05:44:22;5.90;99.90
23289;DHT22;11813;50.834;4.280;2023-02-01T05:46:48;5.90;99.90
23289;DHT22;11813;50.834;4.280;2023-02-01T05:49:14;5.80;99.90
23289;DHT22;11813;50.834;4.280;2023-02-01T05:51:40;5.70;99.90
23289;DHT22;11813;50.834;4.280;2023-02-01T05:54:05;5.80;99.90
23289;DHT22;11813;50.834;4.280;2023-02-01T05:56:31;5.70;99.90
23289;DHT22;11813;50.834;4.280;2023-02-01T05:58:56;5.70;99.90
23289;DHT22;11813;50.834;4.280;2023-02-01T06:01:22;5.60;99.90
23289;DHT22;11813;50.834;4.280;2023-02-01T06:03:48;5.60;99.90
23289;DHT22;11813;50.834;4.280;2023-02-01T06:06:13;5.60;99.90
23289;DHT22;11813;50.834;4.280;2023-02-01T06:08:39;5.40;99.90
23289;DHT22;11813;50.834;4.280;2023-02-01T06:11:07;5.50;99.90
23289;DHT22;11813;50.834;4.280;2023-02-01T06:13:33;5.50;99.90
23289;DHT22;11813;50.834;4.280;2023-02-01T06:15:59;5.50;99.90
23289;DHT22;11813;50.834;4.280;2023-02-01T06:18:25;5.50;99.90
23289;DHT22;11813;50.834;4.280;2023-02-01T06:20:57;5.60;99.90
23289;DHT22;11813;50.834;4.280;2023-02-01T06:23:25;5.60;99.90
23289;DHT22;11813;50.834;4.280;2023-02-01T06:25:52;5.40;99.90
23289;DHT22;11813;50.834;4.280;2023-02-01T06:28:17;5.50;99.90
23289;DHT22;11813;50.834;4.280;2023-02-01T06:30:43;5.40;99.90
23289;DHT22;11813;50.834;4.280;2023-02-01T06:33:12;5.40;99.90
23289;DHT22;11813;50.834;4.280;2023-02-01T06:35:38;5.40;99.90
23289;DHT22;11813;50.834;4.280;2023-02-01T06:38:03;5.50;99.90
23289;DHT22;11813;50.834;4.280;2023-02-01T06:40:29;5.50;99.90
23289;DHT22;11813;50.834;4.280;2023-02-01T06:42:54;5.50;99.90
23289;DHT22;11813;50.834;4.280;2023-02-01T06:45:20;5.50;99.90
23289;DHT22;11813;50.834;4.280;2023-02-01T06:47:45;5.50;99.90
23289;DHT22;11813;50.834;4.280;2023-02-01T06:50:11;5.50;99.90
23289;DHT22;11813;50.834;4.280;2023-02-01T06:52:36;5.50;99.90
23289;DHT22;11813;50.834;4.280;2023-02-01T06:55:02;5.50;99.90
23289;DHT22;11813;50.834;4.280;2023-02-01T06:57:28;5.40;99.90
23289;DHT22;11813;50.834;4.280;2023-02-01T06:59:56;5.40;99.90
23289;DHT22;11813;50.834;4.280;2023-02-01T07:02:21;5.40;99.90
23289;DHT22;11813;50.834;4.280;2023-02-01T07:04:47;5.50;99.90
23289;DHT22;11813;50.834;4.280;2023-02-01T07:07:12;5.40;99.90
23289;DHT22;11813;50.834;4.280;2023-02-01T07:09:38;5.40;99.90
23289;DHT22;11813;50.834;4.280;2023-02-01T07:12:04;5.40;99.90
23289;DHT22;11813;50.834;4.280;2023-02-01T07:14:30;5.40;99.90
23289;DHT22;11813;50.834;4.280;2023-02-01T07:16:55;5.40;99.90
23289;DHT22;11813;50.834;4.280;2023-02-01T07:19:21;5.40;99.90
23289;DHT22;11813;50.834;4.280;2023-02-01T07:21:46;5.40;99.90
23289;DHT22;11813;50.834;4.280;2023-02-01T07:24:12;5.40;99.90
23289;DHT22;11813;50.834;4.280;2023-02-01T07:26:37;5.40;99.90
23289;DHT22;11813;50.834;4.280;2023-02-01T07:29:03;5.50;99.90
23289;DHT22;11813;50.834;4.280;2023-02-01T07:31:28;5.50;99.90
23289;DHT22;11813;50.834;4.280;2023-02-01T07:33:54;5.40;99.90
23289;DHT22;11813;50.834;4.280;2023-02-01T07:36:21;5.40;99.90
23289;DHT22;11813;50.834;4.280;2023-02-01T07:38:47;5.40;99.90
23289;DHT22;11813;50.834;4.280;2023-02-01T07:41:13;5.40;99.90
23289;DHT22;11813;50.834;4.280;2023-02-01T07:43:39;5.40;99.90
23289;DHT22;11813;50.834;4.280;2023-02-01T07:46:05;5.40;99.90
23289;DHT22;11813;50.834;4.280;2023-02-01T07:48:32;5.50;99.90
23289;DHT22;11813;50.834;4.280;2023-02-01T07:51:01;5.60;99.90
23289;DHT22;11813;50.834;4.280;2023-02-01T07:53:29;5.60;99.90
23289;DHT22;11813;50.834;4.280;2023-02-01T07:55:55;5.60;99.90
23289;DHT22;11813;50.834;4.280;2023-02-01T07:58:22;5.70;99.90
23289;DHT22;11813;50.834;4.280;2023-02-01T08:00:48;5.60;99.90
23289;DHT22;11813;50.834;4.280;2023-02-01T08:03:32;5.60;99.90
23289;DHT22;11813;50.834;4.280;2023-02-01T08:05:57;5.60;99.90
23289;DHT22;11813;50.834;4.280;2023-02-01T08:08:23;5.60;99.90
23289;DHT22;11813;50.834;4.280;2023-02-01T08:10:49;5.70;99.90
23289;DHT22;11813;50.834;4.280;2023-02-01T08:13:15;5.60;99.90
23289;DHT22;11813;50.834;4.280;2023-02-01T08:15:40;5.70;99.90
23289;DHT22;11813;50.834;4.280;2023-02-01T08:18:06;5.70;99.90
23289;DHT22;11813;50.834;4.280;2023-02-01T08:20:33;5.70;99.90
23289;DHT22;11813;50.834;4.280;2023-02-01T08:23:00;5.70;99.90
23289;DHT22;11813;50.834;4.280;2023-02-01T08:25:26;5.80;99.90
23289;DHT22;11813;50.834;4.280;2023-02-01T08:27:53;5.80;99.90
23289;DHT22;11813;50.834;4.280;2023-02-01T08:30:20;5.80;99.90
23289;DHT22;11813;50.834;4.280;2023-02-01T08:32:46;5.80;99.90
23289;DHT22;11813;50.834;4.280;2023-02-01T08:35:11;5.80;99.90
23289;DHT22;11813;50.834;4.280;2023-02-01T08:37:37;5.80;99.90
23289;DHT22;11813;50.834;4.280;2023-02-01T08:40:03;5.80;99.90
23289;DHT22;11813;50.834;4.280;2023-02-01T08:42:29;5.80;99.90
23289;DHT22;11813;50.834;4.280;2023-02-01T08:45:14;5.80;99.90
23289;DHT22;11813;50.834;4.280;2023-02-01T08:47:39;5.90;99.90
23289;DHT22;11813;50.834;4.280;2023-02-01T08:50:05;6.00;99.90
23289;DHT22;11813;50.834;4.280;2023-02-01T08:52:31;6.10;99.90
23289;DHT22;11813;50.834;4.280;2023-02-01T08:54:56;6.20;99.90
23289;DHT22;11813;50.834;4.280;2023-02-01T08:57:22;6.20;99.90
23289;DHT22;11813;50.834;4.280;2023-02-01T08:59:47;6.30;99.90
23289;DHT22;11813;50.834;4.280;2023-02-01T09:02:15;6.30;99.90
23289;DHT22;11813;50.834;4.280;2023-02-01T09:04:41;6.40;99.90
23289;DHT22;11813;50.834;4.280;2023-02-01T09:07:08;6.40;99.90
23289;DHT22;11813;50.834;4.280;2023-02-01T09:09:34;6.50;99.90
23289;DHT22;11813;50.834;4.280;2023-02-01T09:11:59;6.70;99.90
23289;DHT22;11813;50.834;4.280;2023-02-01T09:14:25;6.80;99.90
23289;DHT22;11813;50.834;4.280;2023-02-01T09:16:50;6.90;99.90
23289;DHT22;11813;50.834;4.280;2023-02-01T09:19:16;7.00;99.90
23289;DHT22;11813;50.834;4.280;2023-02-01T09:21:42;7.10;99.90
23289;DHT22;11813;50.834;4.280;2023-02-01T09:24:10;7.20;99.90
23289;DHT22;11813;50.834;4.280;2023-02-01T09:26:36;7.30;99.90
23289;DHT22;11813;50.834;4.280;2023-02-01T09:29:02;7.40;99.90
23289;DHT22;11813;50.834;4.280;2023-02-01T09:31:29;7.50;99.90
23289;DHT22;11813;50.834;4.280;2023-02-01T09:33:55;7.50;99.90
23289;DHT22;11813;50.834;4.280;2023-02-01T09:36:21;7.70;99.90
23289;DHT22;11813;50.834;4.280;2023-02-01T09:38:46;7.70;99.90
23289;DHT22;11813;50.834;4.280;2023-02-01T09:46:43;7.80;99.90
23289;DHT22;11813;50.834;4.280;2023-02-01T09:49:18;7.90;99.90
23289;DHT22;11813;50.834;4.280;2023-02-01T09:51:50;8.00;99.90
23289;DHT22;11813;50.834;4.280;2023-02-01T09:54:19;8.10;99.90
23289;DHT22;11813;50.834;4.280;2023-02-01T09:56:48;8.10;99.90
23289;DHT22;11813;50.834;4.280;2023-02-01T10:01:50;8.20;99.90
23289;DHT22;11813;50.834;4.280;2023-02-01T10:04:17;8.10;99.90
23289;DHT22;11813;50.834;4.280;2023-02-01T10:12:53;8.40;99.90
23289;DHT22;11813;50.834;4.280;2023-02-01T10:15:32;8.40;99.90
23289;DHT22;11813;50.834;4.280;2023-02-01T10:28:45;8.60;99.90
23289;DHT22;11813;50.834;4.280;2023-02-01T10:31:11;8.60;99.90
23289;DHT22;11813;50.834;4.280;2023-02-01T10:33:43;8.70;99.90
23289;DHT22;11813;50.834;4.280;2023-02-01T10:36:18;8.70;99.90
23289;DHT22;11813;50.834;4.280;2023-02-01T10:38:45;8.70;99.90
23289;DHT22;11813;50.834;4.280;2023-02-01T10:41:17;8.70;99.90
23289;DHT22;11813;50.834;4.280;2023-02-01T10:43:48;8.80;99.90
23289;DHT22;11813;50.834;4.280;2023-02-01T10:46:16;8.90;99.90
23289;DHT22;11813;50.834;4.280;2023-02-01T10:48:42;8.90;99.90
23289;DHT22;11813;50.834;4.280;2023-02-01T10:51:16;9.00;99.90
23289;DHT22;11813;50.834;4.280;2023-02-01T10:53:55;9.10;99.90
23289;DHT22;11813;50.834;4.280;2023-02-01T10:56:24;9.20;99.90
23289;DHT22;11813;50.834;4.280;2023-02-01T10:58:51;9.10;99.90
23289;DHT22;11813;50.834;4.280;2023-02-01T11:01:22;9.20;99.90
23289;DHT22;11813;50.834;4.280;2023-02-01T11:04:03;9.20;99.90
23289;DHT22;11813;50.834;4.280;2023-02-01T11:06:51;9.20;99.90
23289;DHT22;11813;50.834;4.280;2023-02-01T11:09:23;9.20;99.90
23289;DHT22;11813;50.834;4.280;2023-02-01T11:14:18;9.10;99.90
23289;DHT22;11813;50.834;4.280;2023-02-01T11:16:49;9.10;99.90
23289;DHT22;11813;50.834;4.280;2023-02-01T11:19:17;9.10;99.90
23289;DHT22;11813;50.834;4.280;2023-02-01T11:21:43;9.10;99.90
23289;DHT22;11813;50.834;4.280;2023-02-01T11:24:33;9.30;99.90
23289;DHT22;11813;50.834;4.280;2023-02-01T11:27:03;9.50;99.90
23289;DHT22;11813;50.834;4.280;2023-02-01T11:29:38;9.60;99.90
23289;DHT22;11813;50.834;4.280;2023-02-01T11:32:04;9.60;99.90
23289;DHT22;11813;50.834;4.280;2023-02-01T11:35:03;9.60;99.90
23289;DHT22;11813;50.834;4.280;2023-02-01T11:37:36;9.80;99.90
23289;DHT22;11813;50.834;4.280;2023-02-01T11:43:11;9.80;99.90
23289;DHT22;11813;50.834;4.280;2023-02-01T11:45:38;9.70;99.90
23289;DHT22;11813;50.834;4.280;2023-02-01T11:48:09;9.70;99.90
23289;DHT22;11813;50.834;4.280;2023-02-01T11:51:49;9.60;99.90
23289;DHT22;11813;50.834;4.280;2023-02-01T11:53:55;9.50;99.90
23289;DHT22;11813;50.834;4.280;2023-02-01T12:07:19;10.20;99.90
23289;DHT22;11813;50.834;4.280;2023-02-01T12:21:06;10.90;99.90
23289;DHT22;11813;50.834;4.280;2023-02-01T12:26:48;10.80;99.90
23289;DHT22;11813;50.834;4.280;2023-02-01T12:40:17;11.30;99.90
23289;DHT22;11813;50.834;4.280;2023-02-01T12:43:03;11.30;99.90
23289;DHT22;11813;50.834;4.280;2023-02-01T12:45:40;11.20;99.90
23289;DHT22;11813;50.834;4.280;2023-02-01T12:48:30;11.00;99.90
23289;DHT22;11813;50.834;4.280;2023-02-01T12:51:01;11.10;99.90
23289;DHT22;11813;50.834;4.280;2023-02-01T12:56:11;11.40;99.90
23289;DHT22;11813;50.834;4.280;2023-02-01T12:58:43;11.90;99.90
23289;DHT22;11813;50.834;4.280;2023-02-01T13:01:15;12.10;99.90
23289;DHT22;11813;50.834;4.280;2023-02-01T13:06:37;11.80;99.90
23289;DHT22;11813;50.834;4.280;2023-02-01T13:11:43;11.90;99.90
23289;DHT22;11813;50.834;4.280;2023-02-01T13:17:24;12.10;99.90
23289;DHT22;11813;50.834;4.280;2023-02-01T13:20:00;12.00;99.90
23289;DHT22;11813;50.834;4.280;2023-02-01T13:25:05;12.30;99.90
23289;DHT22;11813;50.834;4.280;2023-02-01T13:27:36;12.20;99.90
23289;DHT22;11813;50.834;4.280;2023-02-01T13:33:13;12.30;99.90
23289;DHT22;11813;50.834;4.280;2023-02-01T13:36:12;12.70;99.90
23289;DHT22;11813;50.834;4.280;2023-02-01T13:39:09;12.90;99.90
23289;DHT22;11813;50.834;4.280;2023-02-01T13:42:00;12.70;99.90
23289;DHT22;11813;50.834;4.280;2023-02-01T13:44:57;12.40;99.90
23289;DHT22;11813;50.834;4.280;2023-02-01T13:49:50;12.00;99.90
23289;DHT22;11813;50.834;4.280;2023-02-01T13:52:37;11.90;99.90
23289;DHT22;11813;50.834;4.280;2023-02-01T13:57:48;11.60;99.90
23289;DHT22;11813;50.834;4.280;2023-02-01T14:10:55;11.80;99.90
23289;DHT22;11813;50.834;4.280;2023-02-01T14:16:10;12.30;99.90
23289;DHT22;11813;50.834;4.280;2023-02-01T14:21:33;12.10;99.90
23289;DHT22;11813;50.834;4.280;2023-02-01T14:26:50;12.00;99.90
23289;DHT22;11813;50.834;4.280;2023-02-01T14:32:05;11.50;99.90
23289;DHT22;11813;50.834;4.280;2023-02-01T14:34:39;11.50;99.90
23289;DHT22;11813;50.834;4.280;2023-02-01T14:37:11;11.40;99.90
23289;DHT22;11813;50.834;4.280;2023-02-01T14:47:51;10.80;99.90
23289;DHT22;11813;50.834;4.280;2023-02-01T14:55:44;10.70;99.90
23289;DHT22;11813;50.834;4.280;2023-02-01T14:58:46;10.60;99.90
23289;DHT22;11813;50.834;4.280;2023-02-01T15:01:30;10.50;99.90
23289;DHT22;11813;50.834;4.280;2023-02-01T15:04:15;10.40;99.90
23289;DHT22;11813;50.834;4.280;2023-02-01T15:06:49;10.30;99.90
23289;DHT22;11813;50.834;4.280;2023-02-01T15:09:25;10.40;99.90
23289;DHT22;11813;50.834;4.280;2023-02-01T15:12:02;10.30;99.90
23289;DHT22;11813;50.834;4.280;2023-02-01T15:14:31;10.20;99.90
23289;DHT22;11813;50.834;4.280;2023-02-01T15:16:57;10.20;99.90
23289;DHT22;11813;50.834;4.280;2023-02-01T15:19:26;10.20;99.90
23289;DHT22;11813;50.834;4.280;2023-02-01T15:21:54;10.10;99.90
23289;DHT22;11813;50.834;4.280;2023-02-01T15:24:38;10.00;99.90
23289;DHT22;11813;50.834;4.280;2023-02-01T15:27:05;10.00;99.90
23289;DHT22;11813;50.834;4.280;2023-02-01T15:29:31;10.00;99.90
23289;DHT22;11813;50.834;4.280;2023-02-01T15:32:01;9.90;99.90
23289;DHT22;11813;50.834;4.280;2023-02-01T15:34:45;10.00;99.90
23289;DHT22;11813;50.834;4.280;2023-02-01T15:37:14;10.00;99.90
23289;DHT22;11813;50.834;4.280;2023-02-01T15:45:26;9.80;99.90
23289;DHT22;11813;50.834;4.280;2023-02-01T15:47:55;9.80;99.90
23289;DHT22;11813;50.834;4.280;2023-02-01T15:50:21;9.80;99.90
23289;DHT22;11813;50.834;4.280;2023-02-01T15:52:49;9.80;99.90
23289;DHT22;11813;50.834;4.280;2023-02-01T15:55:29;9.70;99.90
23289;DHT22;11813;50.834;4.280;2023-02-01T15:57:55;9.60;99.90
23289;DHT22;11813;50.834;4.280;2023-02-01T16:00:27;9.60;99.90
23289;DHT22;11813;50.834;4.280;2023-02-01T16:02:58;9.60;99.90
23289;DHT22;11813;50.834;4.280;2023-02-01T16:05:53;9.60;99.90
23289;DHT22;11813;50.834;4.280;2023-02-01T16:08:15;9.60;99.90
23289;DHT22;11813;50.834;4.280;2023-02-01T16:10:46;9.60;99.90
23289;DHT22;11813;50.834;4.280;2023-02-01T16:13:12;9.60;99.90
23289;DHT22;11813;50.834;4.280;2023-02-01T16:15:39;9.70;99.90
23289;DHT22;11813;50.834;4.280;2023-02-01T16:18:05;9.60;99.90
23289;DHT22;11813;50.834;4.280;2023-02-01T16:20:33;9.50;99.90
23289;DHT22;11813;50.834;4.280;2023-02-01T16:23:01;9.50;99.90
23289;DHT22;11813;50.834;4.280;2023-02-01T16:25:26;9.40;99.90
23289;DHT22;11813;50.834;4.280;2023-02-01T16:27:52;9.40;99.90
23289;DHT22;11813;50.834;4.280;2023-02-01T16:30:17;9.40;99.90
23289;DHT22;11813;50.834;4.280;2023-02-01T16:32:48;9.40;99.90
23289;DHT22;11813;50.834;4.280;2023-02-01T16:38:13;9.40;99.90
23289;DHT22;11813;50.834;4.280;2023-02-01T16:40:42;9.30;99.90
23289;DHT22;11813;50.834;4.280;2023-02-01T16:43:16;9.40;99.90
23289;DHT22;11813;50.834;4.280;2023-02-01T16:45:45;9.30;99.90
23289;DHT22;11813;50.834;4.280;2023-02-01T16:50:47;9.30;99.90
23289;DHT22;11813;50.834;4.280;2023-02-01T16:53:14;9.30;99.90
23289;DHT22;11813;50.834;4.280;2023-02-01T16:55:41;9.30;99.90
23289;DHT22;11813;50.834;4.280;2023-02-01T16:58:09;9.30;99.90
23289;DHT22;11813;50.834;4.280;2023-02-01T17:00:34;9.40;99.90
23289;DHT22;11813;50.834;4.280;2023-02-01T17:03:03;9.30;99.90
23289;DHT22;11813;50.834;4.280;2023-02-01T17:05:28;9.40;99.90
23289;DHT22;11813;50.834;4.280;2023-02-01T17:07:56;9.30;99.90
23289;DHT22;11813;50.834;4.280;2023-02-01T17:10:25;9.40;99.90
23289;DHT22;11813;50.834;4.280;2023-02-01T17:12:52;9.40;99.90
23289;DHT22;11813;50.834;4.280;2023-02-01T17:15:17;9.20;99.90
23289;DHT22;11813;50.834;4.280;2023-02-01T17:17:43;9.20;99.90
23289;DHT22;11813;50.834;4.280;2023-02-01T17:20:18;9.20;99.90
23289;DHT22;11813;50.834;4.280;2023-02-01T17:22:44;9.20;99.90
23289;DHT22;11813;50.834;4.280;2023-02-01T17:25:15;9.10;99.90
23289;DHT22;11813;50.834;4.280;2023-02-01T17:27:41;9.10;99.90
23289;DHT22;11813;50.834;4.280;2023-02-01T17:30:08;9.10;99.90
23289;DHT22;11813;50.834;4.280;2023-02-01T17:32:35;9.10;99.90
23289;DHT22;11813;50.834;4.280;2023-02-01T17:35:01;9.10;99.90
23289;DHT22;11813;50.834;4.280;2023-02-01T17:37:29;9.10;99.90
23289;DHT22;11813;50.834;4.280;2023-02-01T17:39:55;9.10;99.90
23289;DHT22;11813;50.834;4.280;2023-02-01T17:42:24;9.10;99.90
23289;DHT22;11813;50.834;4.280;2023-02-01T17:44:54;9.00;99.90
23289;DHT22;11813;50.834;4.280;2023-02-01T17:47:20;9.00;99.90
23289;DHT22;11813;50.834;4.280;2023-02-01T17:49:46;9.00;99.90
23289;DHT22;11813;50.834;4.280;2023-02-01T17:52:17;9.00;99.90
23289;DHT22;11813;50.834;4.280;2023-02-01T17:54:43;9.00;99.90
23289;DHT22;11813;50.834;4.280;2023-02-01T17:57:12;8.90;99.90
23289;DHT22;11813;50.834;4.280;2023-02-01T17:59:38;9.00;99.90
23289;DHT22;11813;50.834;4.280;2023-02-01T18:02:03;9.00;99.90
23289;DHT22;11813;50.834;4.280;2023-02-01T18:04:33;9.00;99.90
23289;DHT22;11813;50.834;4.280;2023-02-01T18:06:58;9.00;99.90
23289;DHT22;11813;50.834;4.280;2023-02-01T18:09:24;9.10;99.90
23289;DHT22;11813;50.834;4.280;2023-02-01T18:11:50;9.10;99.90
23289;DHT22;11813;50.834;4.280;2023-02-01T18:14:19;9.10;99.90
23289;DHT22;11813;50.834;4.280;2023-02-01T18:16:45;9.10;99.90
23289;DHT22;11813;50.834;4.280;2023-02-01T18:19:10;9.10;99.90
23289;DHT22;11813;50.834;4.280;2023-02-01T18:21:38;9.00;99.90
23289;DHT22;11813;50.834;4.280;2023-02-01T18:24:06;9.10;99.90
23289;DHT22;11813;50.834;4.280;2023-02-01T18:26:32;9.10;99.90
23289;DHT22;11813;50.834;4.280;2023-02-01T18:28:57;9.10;99.90
23289;DHT22;11813;50.834;4.280;2023-02-01T18:31:26;9.10;99.90
23289;DHT22;11813;50.834;4.280;2023-02-01T18:33:54;9.10;99.90
23289;DHT22;11813;50.834;4.280;2023-02-01T18:36:20;9.00;99.90
23289;DHT22;11813;50.834;4.280;2023-02-01T18:38:46;9.00;99.90
23289;DHT22;11813;50.834;4.280;2023-02-01T18:41:14;8.90;99.90
23289;DHT22;11813;50.834;4.280;2023-02-01T18:43:40;9.00;99.90
23289;DHT22;11813;50.834;4.280;2023-02-01T18:46:07;9.00;99.90
23289;DHT22;11813;50.834;4.280;2023-02-01T18:48:33;9.00;99.90